Time;durP1;ratioP1;P1;durP2;ratioP2;P2;SDS_P1;SDS_P2;PMS_P1;PMS_P2;Temp;Humidity;BMP_temperature;BMP_pressure;BME280_temperature;BME280_humidity;BME280_pressure;Samples;Min_cycle;Max_cycle;Signal;HPM_P1;HPM_P2
2022/06/08 00:02:19;;;;;;;10.63;8.87;;;15.30;99.90;;;;;;4992457;28;20187;-66
2022/06/08 00:04:45;;;;;;;12.60;9.03;;;15.30;99.90;;;;;;4992173;28;20272;-67
2022/06/08 00:07:11;;;;;;;9.50;8.60;;;15.40;99.90;;;;;;5011902;28;20727;-66
2022/06/08 00:09:36;;;;;;;9.60;8.70;;;15.30;99.90;;;;;;5012035;28;20176;-67
2022/06/08 00:12:03;;;;;;;9.67;8.67;;;15.30;99.90;;;;;;4993146;28;20723;-66
2022/06/08 00:14:29;;;;;;;10.40;8.93;;;15.30;99.90;;;;;;4991937;28;20670;-67
2022/06/08 00:16:55;;;;;;;10.07;8.33;;;15.30;99.90;;;;;;5009218;28;20275;-66
2022/06/08 00:19:20;;;;;;;10.37;9.47;;;15.30;99.90;;;;;;5002960;28;20216;-66
2022/06/08 00:21:46;;;;;;;9.67;8.63;;;15.30;99.90;;;;;;4992399;28;20644;-67
2022/06/08 00:24:11;;;;;;;13.00;8.57;;;15.30;99.90;;;;;;5005407;28;20206;-67
2022/06/08 00:26:37;;;;;;;12.80;8.80;;;15.30;99.90;;;;;;5011694;28;20219;-67
2022/06/08 00:29:04;;;;;;;10.13;9.13;;;15.30;99.90;;;;;;4999062;28;20234;-66
2022/06/08 00:31:30;;;;;;;11.03;9.03;;;15.30;99.90;;;;;;5002011;28;20179;-67
2022/06/08 00:33:55;;;;;;;10.30;9.20;;;15.40;99.90;;;;;;5010710;28;20548;-67
2022/06/08 00:36:21;;;;;;;9.70;8.73;;;15.40;99.90;;;;;;5002924;28;20220;-67
2022/06/08 00:38:46;;;;;;;9.90;8.83;;;15.40;99.90;;;;;;4992469;28;20578;-67
2022/06/08 00:41:38;;;;;;;10.53;9.60;;;15.40;99.90;;;;;;4998777;28;20180;-67
2022/06/08 00:44:11;;;;;;;11.60;10.00;;;15.30;99.90;;;;;;5011282;28;20179;-67
2022/06/08 00:46:37;;;;;;;10.70;9.90;;;15.30;99.90;;;;;;5010899;28;20196;-67
2022/06/08 00:49:13;;;;;;;11.00;9.93;;;15.30;99.90;;;;;;5011817;28;20243;-67
2022/06/08 00:51:39;;;;;;;11.33;10.23;;;15.30;99.90;;;;;;5000259;28;20172;-67
2022/06/08 00:54:10;;;;;;;9.80;8.90;;;15.30;99.90;;;;;;4991037;28;20173;-67
2022/06/08 00:56:41;;;;;;;11.07;9.97;;;15.30;99.90;;;;;;5001099;28;20270;-67
2022/06/08 00:59:08;;;;;;;12.00;9.63;;;15.40;99.90;;;;;;5011522;28;20186;-66
2022/06/08 01:01:34;;;;;;;11.17;10.17;;;15.40;99.90;;;;;;5002973;28;20189;-67
2022/06/08 01:04:08;;;;;;;11.13;10.23;;;15.40;99.90;;;;;;4991518;28;20586;-68
2022/06/08 01:06:34;;;;;;;10.50;9.60;;;15.40;99.90;;;;;;4998669;28;20212;-66
2022/06/08 01:08:59;;;;;;;10.43;9.53;;;15.40;99.90;;;;;;5011246;28;20181;-65
2022/06/08 01:11:29;;;;;;;11.10;9.97;;;15.40;99.90;;;;;;5005805;28;20187;-66
2022/06/08 01:13:57;;;;;;;10.87;9.60;;;15.40;99.90;;;;;;4991706;28;20260;-67
2022/06/08 01:16:23;;;;;;;10.87;9.90;;;15.40;99.90;;;;;;4999180;28;20223;-67
2022/06/08 01:18:49;;;;;;;12.97;9.63;;;15.40;99.90;;;;;;5011438;28;20650;-66
2022/06/08 01:21:20;;;;;;;13.23;9.50;;;15.40;99.90;;;;;;5003609;28;20189;-66
2022/06/08 01:23:53;;;;;;;9.43;8.63;;;15.50;99.90;;;;;;4991659;28;20411;-67
2022/06/08 01:26:29;;;;;;;11.63;9.10;;;15.50;99.90;;;;;;4992622;28;20217;-67
2022/06/08 01:29:10;;;;;;;9.27;8.40;;;15.40;99.90;;;;;;4991931;28;20251;-66
2022/06/08 01:31:56;;;;;;;10.00;8.83;;;15.40;99.90;;;;;;4991885;28;20172;-66
2022/06/08 01:34:37;;;;;;;9.47;8.47;;;15.40;99.90;;;;;;4981852;28;20263;-67
2022/06/08 01:37:35;;;;;;;9.30;8.60;;;15.40;99.90;;;;;;5008408;28;20220;-65
2022/06/08 01:40:20;;;;;;;9.37;8.53;;;15.40;99.90;;;;;;4990167;28;20699;-66
2022/06/08 01:43:01;;;;;;;9.00;8.13;;;15.40;99.90;;;;;;5012213;28;20191;-66
2022/06/08 01:45:38;;;;;;;11.93;8.20;;;15.40;99.90;;;;;;5013602;28;20623;-67
2022/06/08 01:48:22;;;;;;;14.00;8.87;;;15.40;99.90;;;;;;5014705;28;20204;-66
2022/06/08 01:50:54;;;;;;;10.10;9.10;;;15.30;99.90;;;;;;5013600;28;20180;-66
2022/06/08 01:53:51;;;;;;;10.40;8.27;;;15.20;99.90;;;;;;5014588;28;20168;-66
2022/06/08 01:56:25;;;;;;;11.87;8.40;;;15.20;99.90;;;;;;4991441;28;20650;-66
2022/06/08 01:59:16;;;;;;;10.27;9.17;;;15.10;99.90;;;;;;4994707;28;20196;-66
2022/06/08 02:02:00;;;;;;;12.03;9.67;;;15.00;99.90;;;;;;4995411;28;20165;-66
2022/06/08 02:04:45;;;;;;;13.77;10.00;;;14.90;99.90;;;;;;4995464;28;20533;-65
2022/06/08 02:07:15;;;;;;;11.83;10.43;;;14.80;99.90;;;;;;5014325;28;20195;-66
2022/06/08 02:09:52;;;;;;;12.03;10.77;;;14.80;99.90;;;;;;5013108;28;20164;-66
2022/06/08 02:12:18;;;;;;;10.63;9.63;;;14.70;99.90;;;;;;4994746;28;20176;-66
2022/06/08 02:14:53;;;;;;;10.47;9.63;;;14.70;99.90;;;;;;4995787;28;20722;-65
2022/06/08 02:17:30;;;;;;;10.70;9.70;;;14.60;99.90;;;;;;5014343;28;20542;-66
2022/06/08 02:20:05;;;;;;;11.80;10.70;;;14.60;99.90;;;;;;5012540;28;20188;-66
2022/06/08 02:22:47;;;;;;;9.43;8.63;;;14.50;99.90;;;;;;5002928;28;20203;-67
2022/06/08 02:25:25;;;;;;;10.87;9.77;;;14.40;99.90;;;;;;5013333;28;20568;-67
2022/06/08 02:28:22;;;;;;;12.07;8.97;;;14.50;99.90;;;;;;5014200;28;20199;-67
2022/06/08 02:31:08;;;;;;;10.60;9.60;;;14.50;99.90;;;;;;4999110;28;20196;-66
2022/06/08 02:36:32;;;;;;;9.70;8.90;;;14.50;99.90;;;;;;5001806;28;20215;-67
2022/06/08 02:39:07;;;;;;;9.60;8.63;;;14.40;99.90;;;;;;5005393;28;20176;-66
2022/06/08 02:41:36;;;;;;;9.80;8.80;;;14.40;99.90;;;;;;5013904;28;20667;-66
2022/06/08 02:44:06;;;;;;;9.07;8.17;;;14.50;99.90;;;;;;5001935;28;20185;-66
2022/06/08 02:46:47;;;;;;;8.77;8.00;;;14.40;99.90;;;;;;4994748;28;20696;-65
2022/06/08 02:49:13;;;;;;;9.20;8.50;;;14.40;99.90;;;;;;5005762;28;20644;-65
2022/06/08 02:51:44;;;;;;;12.13;8.63;;;14.30;99.90;;;;;;5013028;28;20168;-67
2022/06/08 02:54:19;;;;;;;9.10;8.30;;;14.20;99.90;;;;;;5000443;28;20246;-67
2022/06/08 02:57:15;;;;;;;11.13;8.37;;;14.20;99.90;;;;;;4994018;28;20255;-64
2022/06/08 02:59:52;;;;;;;16.43;8.83;;;14.10;99.90;;;;;;4997203;28;20199;-65
2022/06/08 03:02:24;;;;;;;9.80;9.00;;;14.10;99.90;;;;;;4993741;28;20179;-67
2022/06/08 03:05:11;;;;;;;14.03;10.30;;;14.00;99.90;;;;;;4994513;28;20209;-66
2022/06/08 03:08:36;;;;;;;11.70;10.73;;;14.00;99.90;;;;;;4993823;28;20240;-66
2022/06/08 03:11:04;;;;;;;11.70;10.50;;;13.90;99.90;;;;;;4991218;28;20185;-66
2022/06/08 03:13:54;;;;;;;12.30;9.93;;;13.90;99.90;;;;;;4993717;28;20230;-66
2022/06/08 03:16:33;;;;;;;9.93;8.93;;;13.80;99.90;;;;;;5012197;28;20212;-66
2022/06/08 03:18:59;;;;;;;12.67;9.43;;;13.90;99.90;;;;;;5006514;28;20192;-66
2022/06/08 03:21:25;;;;;;;10.90;9.77;;;13.90;99.90;;;;;;4993674;28;20262;-67
2022/06/08 03:23:52;;;;;;;14.07;9.77;;;13.90;99.90;;;;;;4997530;28;20482;-66
2022/06/08 03:26:19;;;;;;;15.37;9.67;;;14.00;99.90;;;;;;5012820;28;20265;-66
2022/06/08 03:28:45;;;;;;;14.07;9.27;;;14.10;99.90;;;;;;5009844;28;20180;-67
2022/06/08 03:31:11;;;;;;;13.30;9.87;;;14.10;99.90;;;;;;4993661;28;20176;-67
2022/06/08 03:33:37;;;;;;;12.13;10.63;;;14.30;99.90;;;;;;5012935;28;20178;-67
2022/06/08 03:36:03;;;;;;;14.50;10.90;;;14.40;99.90;;;;;;5011678;28;20200;-67
2022/06/08 03:38:29;;;;;;;15.67;10.17;;;14.40;99.90;;;;;;4994125;28;20189;-67
2022/06/08 03:40:54;;;;;;;12.00;9.93;;;14.50;99.90;;;;;;4993348;28;20188;-67
2022/06/08 03:43:20;;;;;;;11.07;10.07;;;14.50;99.90;;;;;;4993138;28;20256;-65
2022/06/08 03:45:50;;;;;;;12.37;10.83;;;14.60;99.90;;;;;;4999868;28;20294;-67
2022/06/08 03:48:17;;;;;;;16.40;9.87;;;14.60;99.90;;;;;;5012599;28;20216;-67
2022/06/08 03:50:43;;;;;;;11.87;9.53;;;14.60;99.90;;;;;;5006467;28;20652;-67
2022/06/08 03:53:17;;;;;;;12.13;9.10;;;14.60;99.90;;;;;;4992943;28;20169;-66
2022/06/08 03:55:45;;;;;;;11.03;8.93;;;14.60;99.90;;;;;;4997424;28;20187;-66
2022/06/08 03:58:10;;;;;;;10.60;9.60;;;14.60;99.90;;;;;;5012322;28;20176;-66
2022/06/08 04:00:36;;;;;;;10.17;9.37;;;14.70;99.90;;;;;;4999470;28;20189;-67
2022/06/08 04:03:03;;;;;;;10.50;9.50;;;14.70;99.90;;;;;;4992130;28;20177;-67
2022/06/08 04:05:29;;;;;;;13.43;10.20;;;14.70;99.90;;;;;;5003169;28;20648;-66
2022/06/08 04:07:55;;;;;;;12.10;10.90;;;14.70;99.90;;;;;;5012398;28;20282;-67
2022/06/08 04:10:21;;;;;;;10.63;9.63;;;14.70;99.90;;;;;;5002506;28;20189;-67
2022/06/08 04:12:46;;;;;;;11.20;9.50;;;14.60;99.90;;;;;;4992501;28;20173;-66
2022/06/08 04:15:41;;;;;;;10.77;9.77;;;14.60;99.90;;;;;;4999236;28;20199;-67
2022/06/08 04:17:57;;;;;;;11.93;9.77;;;14.60;99.90;;;;;;5011905;28;20264;-67
2022/06/08 04:20:23;;;;;;;12.77;11.73;;;14.60;99.90;;;;;;5010085;28;20751;-66
2022/06/08 04:22:48;;;;;;;11.43;10.43;;;14.60;99.90;;;;;;5012192;28;20179;-66
2022/06/08 04:25:14;;;;;;;12.07;10.63;;;14.60;99.90;;;;;;5001230;28;20722;-68
2022/06/08 04:27:40;;;;;;;13.83;11.43;;;14.70;99.90;;;;;;4992154;28;20283;-68
2022/06/08 04:30:06;;;;;;;12.70;11.40;;;14.70;99.90;;;;;;5001137;28;20233;-67
2022/06/08 04:32:32;;;;;;;11.10;9.97;;;14.70;99.90;;;;;;5011552;28;20179;-66
2022/06/08 04:34:58;;;;;;;13.20;9.70;;;14.80;99.90;;;;;;5010649;28;20195;-67
2022/06/08 04:37:23;;;;;;;12.43;11.07;;;14.80;99.90;;;;;;5011550;28;20243;-66
2022/06/08 04:39:49;;;;;;;12.13;10.47;;;14.90;99.90;;;;;;5005507;28;20260;-67
2022/06/08 04:42:15;;;;;;;10.80;9.80;;;14.90;99.90;;;;;;4991736;28;20187;-67
2022/06/08 04:44:41;;;;;;;11.40;10.20;;;15.00;99.90;;;;;;4995022;28;20537;-67
2022/06/08 04:47:08;;;;;;;10.97;9.97;;;15.10;99.90;;;;;;5011163;28;20215;-67
2022/06/08 04:49:35;;;;;;;10.23;9.23;;;15.10;99.90;;;;;;5009001;28;20240;-67
2022/06/08 04:52:01;;;;;;;12.10;10.57;;;15.20;99.90;;;;;;4991861;28;20227;-67
2022/06/08 04:54:26;;;;;;;10.97;9.90;;;15.40;99.90;;;;;;5005196;28;20647;-67
2022/06/08 04:56:52;;;;;;;10.17;9.17;;;15.50;99.90;;;;;;5011286;28;20180;-67
2022/06/08 04:59:18;;;;;;;11.17;10.10;;;15.70;99.90;;;;;;4997880;28;20192;-66
2022/06/08 05:01:43;;;;;;;12.83;10.27;;;15.90;99.90;;;;;;4991720;28;20272;-68
2022/06/08 05:04:09;;;;;;;10.90;9.90;;;16.10;99.90;;;;;;5008405;28;20258;-67
2022/06/08 05:06:34;;;;;;;8.87;7.97;;;16.30;99.90;;;;;;5011049;28;20200;-67
2022/06/08 05:09:00;;;;;;;8.40;7.80;;;16.40;99.90;;;;;;4992700;28;20708;-66
2022/06/08 05:11:26;;;;;;;14.93;9.47;;;16.60;99.90;;;;;;4991639;28;20177;-67
2022/06/08 05:13:52;;;;;;;10.03;8.87;;;16.80;99.90;;;;;;5004974;28;20206;-67
2022/06/08 05:16:18;;;;;;;8.30;7.70;;;17.10;99.90;;;;;;5012923;28;20238;-67
2022/06/08 05:18:43;;;;;;;7.33;6.30;;;17.40;99.90;;;;;;5014073;28;20602;-67
2022/06/08 05:21:09;;;;;;;8.97;6.43;;;17.70;99.90;;;;;;5014797;28;20235;-68
2022/06/08 05:23:39;;;;;;;5.87;5.47;;;17.90;99.90;;;;;;5004041;28;20181;-67
2022/06/08 05:26:08;;;;;;;6.23;5.70;;;18.10;99.90;;;;;;4993974;28;20570;-67
2022/06/08 05:28:34;;;;;;;6.80;5.70;;;18.10;99.90;;;;;;4996167;28;20254;-67
2022/06/08 05:31:00;;;;;;;5.93;5.53;;;18.10;99.90;;;;;;4998756;28;20574;-68
2022/06/08 05:33:26;;;;;;;6.77;6.17;;;17.90;99.90;;;;;;5014446;28;20327;-67
2022/06/08 05:35:53;;;;;;;6.77;6.27;;;17.80;99.90;;;;;;5013726;28;20200;-67
2022/06/08 05:38:19;;;;;;;5.93;5.60;;;17.80;99.90;;;;;;5014545;28;20188;-66
2022/06/08 05:40:44;;;;;;;7.40;6.10;;;17.80;99.90;;;;;;5001233;28;20185;-67
2022/06/08 05:43:12;;;;;;;6.70;6.30;;;17.80;99.90;;;;;;4994839;28;20649;-68
2022/06/08 05:45:39;;;;;;;6.40;5.90;;;17.80;99.90;;;;;;5005794;28;20243;-67
2022/06/08 05:48:05;;;;;;;8.27;5.83;;;17.90;99.90;;;;;;5014247;28;20248;-68
2022/06/08 05:50:32;;;;;;;6.60;6.00;;;18.10;99.90;;;;;;5003765;28;20215;-68
2022/06/08 05:52:58;;;;;;;5.00;4.80;;;18.20;99.90;;;;;;4994582;28;20187;-67
2022/06/08 05:55:25;;;;;;;5.90;5.27;;;18.30;99.90;;;;;;5002638;28;20204;-67
2022/06/08 05:57:51;;;;;;;8.73;5.00;;;18.40;99.90;;;;;;5014312;28;20184;-68
2022/06/08 06:00:22;;;;;;;5.40;5.10;;;18.40;99.90;;;;;;5013052;28;20192;-67
2022/06/08 06:02:47;;;;;;;5.27;4.87;;;18.40;99.90;;;;;;5014157;28;20189;-67
2022/06/08 06:05:16;;;;;;;5.70;5.30;;;18.40;99.90;;;;;;5007151;28;20209;-67
2022/06/08 06:07:42;;;;;;;6.50;5.30;;;18.40;99.90;;;;;;4994604;28;20295;-66
2022/06/08 06:10:09;;;;;;;7.77;5.83;;;18.40;99.90;;;;;;4994440;28;20574;-67
2022/06/08 06:12:35;;;;;;;5.53;5.23;;;18.50;99.90;;;;;;4994661;28;20607;-67
2022/06/08 06:15:01;;;;;;;5.83;5.47;;;18.60;99.90;;;;;;5006861;28;20201;-68
2022/06/08 06:17:28;;;;;;;5.50;5.10;;;18.50;99.90;;;;;;5014375;28;20180;-67
2022/06/08 06:19:55;;;;;;;5.37;4.87;;;18.60;99.90;;;;;;5013341;28;20190;-66
2022/06/08 06:22:20;;;;;;;5.50;5.00;;;18.70;99.90;;;;;;5014052;28;20183;-67
2022/06/08 06:24:46;;;;;;;6.10;5.53;;;18.70;99.90;;;;;;5006743;28;20715;-68
2022/06/08 06:27:12;;;;;;;5.93;5.50;;;18.70;99.90;;;;;;5007795;28;20283;-67
2022/06/08 06:29:37;;;;;;;5.67;5.23;;;18.80;99.90;;;;;;5013803;28;20178;-67
2022/06/08 06:32:06;;;;;;;8.17;5.60;;;18.70;99.90;;;;;;5007343;28;20271;-67
2022/06/08 06:34:33;;;;;;;5.50;5.10;;;18.80;99.90;;;;;;4993828;28;20180;-68
2022/06/08 06:36:59;;;;;;;6.00;5.50;;;18.90;99.90;;;;;;4999804;28;20188;-67
2022/06/08 06:39:29;;;;;;;5.87;5.47;;;19.00;99.90;;;;;;5013775;28;20611;-66
2022/06/08 06:41:56;;;;;;;5.50;5.20;;;19.30;99.90;;;;;;5008607;28;20185;-66
2022/06/08 06:44:22;;;;;;;5.73;5.33;;;19.50;99.90;;;;;;4993506;28;20263;-67
2022/06/08 06:46:47;;;;;;;7.13;6.43;;;19.70;99.90;;;;;;4996949;28;20279;-67
2022/06/08 06:49:13;;;;;;;7.77;7.17;;;19.90;99.90;;;;;;5013322;28;20176;-66
2022/06/08 06:51:39;;;;;;;7.13;6.63;;;20.00;99.90;;;;;;5011363;28;20689;-68
2022/06/08 06:54:08;;;;;;;6.67;6.27;;;20.30;99.90;;;;;;4992856;28;20235;-67
2022/06/08 06:56:34;;;;;;;6.13;5.80;;;20.60;99.90;;;;;;4993938;28;20524;-66
2022/06/08 06:59:01;;;;;;;6.57;5.97;;;20.90;99.90;;;;;;5013042;28;20180;-67
2022/06/08 07:01:27;;;;;;;5.43;5.03;;;21.00;99.90;;;;;;5013232;28;20581;-67
2022/06/08 07:03:52;;;;;;;6.93;6.33;;;21.10;99.90;;;;;;5010517;28;20305;-68
2022/06/08 07:06:18;;;;;;;5.47;5.17;;;21.10;99.90;;;;;;5012884;28;20226;-67
2022/06/08 07:08:44;;;;;;;7.77;6.17;;;21.00;99.90;;;;;;4995970;28;20276;-67
2022/06/08 07:13:57;;;;;;;5.70;5.30;;;20.80;99.90;;;;;;5011185;28;20652;-66
2022/06/08 07:16:22;;;;;;;5.53;5.23;;;20.50;99.90;;;;;;5007357;28;20197;-66
2022/06/08 07:18:48;;;;;;;6.43;5.50;;;20.30;99.90;;;;;;5010498;28;20243;-66
2022/06/08 07:21:14;;;;;;;6.03;5.63;;;20.00;99.90;;;;;;5004883;28;20181;-67
2022/06/08 07:23:40;;;;;;;5.67;5.27;;;19.80;99.90;;;;;;5005474;28;20203;-68
2022/06/08 07:26:06;;;;;;;6.17;5.77;;;19.60;99.90;;;;;;5006560;28;20207;-67
2022/06/08 07:28:32;;;;;;;5.90;5.27;;;19.60;99.90;;;;;;5013133;28;20206;-67
2022/06/08 07:30:57;;;;;;;6.00;5.50;;;19.60;99.90;;;;;;5030940;28;20623;-68
2022/06/08 07:33:23;;;;;;;7.37;6.17;;;19.50;99.90;;;;;;5031866;28;20305;-64
2022/06/08 07:35:49;;;;;;;6.30;5.80;;;19.50;99.90;;;;;;5027035;28;20690;-67
2022/06/08 07:38:15;;;;;;;6.07;5.70;;;19.50;99.90;;;;;;5011389;28;20168;-66
2022/06/08 07:40:40;;;;;;;6.57;6.07;;;19.60;99.90;;;;;;5012453;28;20183;-65
2022/06/08 07:43:06;;;;;;;6.37;5.77;;;19.70;99.90;;;;;;5031762;28;20176;-68
2022/06/08 07:45:32;;;;;;;5.73;5.33;;;19.60;99.90;;;;;;5031646;28;20191;-68
2022/06/08 07:50:42;;;;;;;6.77;6.43;;;19.70;99.90;;;;;;5032103;28;20218;-67
2022/06/08 07:53:08;;;;;;;6.87;6.37;;;19.70;99.90;;;;;;5031731;28;20167;-68
2022/06/08 07:55:34;;;;;;;7.43;6.97;;;19.70;99.90;;;;;;5031416;28;20613;-67
2022/06/08 07:57:59;;;;;;;6.87;6.27;;;19.80;99.90;;;;;;5030666;28;20175;-67
2022/06/08 08:00:26;;;;;;;5.43;5.03;;;19.80;99.90;;;;;;5031636;28;20602;-67
2022/06/08 08:02:52;;;;;;;5.57;5.17;;;20.00;99.90;;;;;;5001633;28;20180;-67
2022/06/08 08:05:19;;;;;;;6.57;6.00;;;20.40;99.90;;;;;;5011412;28;20659;-67
2022/06/08 08:07:46;;;;;;;5.80;5.07;;;20.90;99.90;;;;;;5000358;28;20212;-68
2022/06/08 08:10:14;;;;;;;5.27;4.87;;;21.60;99.90;;;;;;4992176;28;20275;-66
2022/06/08 08:12:40;;;;;;;4.50;4.20;;;22.30;99.90;;;;;;5002470;28;20211;-66
2022/06/08 08:15:06;;;;;;;6.63;4.45;;;22.90;99.90;;;;;;5011232;28;20184;-66
2022/06/08 08:17:32;;;;;;;4.63;4.22;;;23.30;99.90;;;;;;4998042;28;20184;-67
2022/06/08 08:19:58;;;;;;;4.30;4.00;;;23.80;99.90;;;;;;4993096;28;20644;-67
2022/06/08 08:22:23;;;;;;;4.80;4.40;;;24.10;99.90;;;;;;4997148;28;20184;-66
2022/06/08 08:24:49;;;;;;;3.92;3.67;;;24.50;99.90;;;;;;5009457;28;20204;-68
2022/06/08 08:27:15;;;;;;;4.15;3.78;;;24.50;99.90;;;;;;5009822;28;20204;-68
2022/06/08 08:29:40;;;;;;;5.38;4.53;;;24.30;99.90;;;;;;5010883;28;20668;-68
2022/06/08 08:32:09;;;;;;;3.90;3.60;;;24.10;99.90;;;;;;5001335;28;20187;-67
2022/06/08 08:34:34;;;;;;;4.05;3.67;;;24.30;99.90;;;;;;5025184;28;20632;-67
2022/06/08 08:37:00;;;;;;;5.47;3.70;;;24.40;99.90;;;;;;5026648;28;20180;-67
2022/06/08 08:39:26;;;;;;;3.88;3.58;;;24.80;99.90;;;;;;5011418;28;20176;-68
2022/06/08 08:44:41;;;;;;;5.70;3.60;;;25.50;99.90;;;;;;5010040;28;20756;-67
2022/06/08 08:47:24;;;;;;;4.97;3.47;;;25.80;99.90;;;;;;4997618;28;20215;-66
2022/06/08 08:49:55;;;;;;;4.97;3.20;;;26.30;99.90;;;;;;4991595;28;20177;-68
2022/06/08 08:52:24;;;;;;;3.53;3.33;;;26.40;99.90;;;;;;5001286;28;20168;-67
2022/06/08 08:54:57;;;;;;;4.15;3.85;;;25.80;99.90;;;;;;5004776;28;20587;-67
2022/06/08 08:57:46;;;;;;;4.55;3.25;;;25.60;99.90;;;;;;5003377;28;20184;-67
2022/06/08 09:00:20;;;;;;;4.00;3.70;;;25.50;99.90;;;;;;5015310;28;20176;-67
2022/06/08 09:05:32;;;;;;;3.05;2.85;;;26.70;99.90;;;;;;5015174;28;20245;-67
2022/06/08 09:07:58;;;;;;;3.25;3.00;;;27.10;99.90;;;;;;5015161;28;20204;-66
2022/06/08 09:10:26;;;;;;;3.15;2.90;;;27.60;99.90;;;;;;5013203;28;20615;-66
2022/06/08 09:12:53;;;;;;;3.35;3.05;;;27.80;99.90;;;;;;5034228;28;20174;-67
2022/06/08 09:15:44;;;;;;;3.67;3.47;;;27.70;99.90;;;;;;5020527;28;20192;-67
2022/06/08 09:18:19;;;;;;;4.70;3.38;;;27.70;99.90;;;;;;5030064;28;20191;-65
2022/06/08 09:20:45;;;;;;;4.20;3.78;;;27.30;99.90;;;;;;5023800;28;20202;-64
2022/06/08 09:23:29;;;;;;;3.63;3.42;;;26.70;99.90;;;;;;5014754;28;20172;-67
2022/06/08 09:26:13;;;;;;;3.10;3.00;;;26.40;99.90;;;;;;5003905;28;20370;-67
2022/06/08 09:28:41;;;;;;;3.95;3.65;;;26.40;99.90;;;;;;4994421;28;20243;-67
2022/06/08 09:31:23;;;;;;;4.03;3.67;;;26.10;99.90;;;;;;5006393;28;20618;-66
2022/06/08 09:33:49;;;;;;;3.92;3.63;;;26.00;99.90;;;;;;5002830;28;20211;-66
2022/06/08 09:36:26;;;;;;;4.82;3.35;;;25.80;99.90;;;;;;4995221;28;20500;-68
2022/06/08 09:38:52;;;;;;;3.72;3.25;;;25.80;99.90;;;;;;5005411;28;20198;-67
2022/06/08 09:41:28;;;;;;;6.07;3.42;;;26.00;99.90;;;;;;5014439;28;20172;-66
2022/06/08 09:44:10;;;;;;;6.38;3.65;;;26.10;99.90;;;;;;5013775;28;20548;-67
2022/06/08 09:52:54;;;;;;;3.80;3.60;;;24.70;99.90;;;;;;5019195;28;20254;-67
2022/06/08 09:55:46;;;;;;;4.43;4.07;;;24.10;99.90;;;;;;5026124;28;20272;-66
2022/06/08 09:58:33;;;;;;;4.45;4.05;;;23.50;99.90;;;;;;4995824;28;20553;-67
2022/06/08 10:01:29;;;;;;;5.00;4.70;;;23.10;99.90;;;;;;5013759;28;20207;-66
2022/06/08 10:04:21;;;;;;;9.35;4.90;;;22.60;99.90;;;;;;5012498;28;20214;-66
2022/06/08 10:06:53;;;;;;;9.53;5.83;;;21.80;99.90;;;;;;5014460;28;20196;-65
2022/06/08 10:09:28;;;;;;;9.20;6.07;;;21.00;99.90;;;;;;5003847;28;20181;-67
2022/06/08 10:12:24;;;;;;;9.83;5.83;;;20.30;99.90;;;;;;4995102;28;20168;-67
2022/06/08 10:15:01;;;;;;;11.43;6.13;;;19.70;99.90;;;;;;4995344;28;20676;-67
2022/06/08 10:17:39;;;;;;;7.67;5.47;;;19.30;99.90;;;;;;4994550;28;20267;-67
2022/06/08 10:20:16;;;;;;;8.67;5.77;;;19.20;99.90;;;;;;4994695;28;20239;-67
2022/06/08 10:22:48;;;;;;;8.57;5.83;;;19.10;99.90;;;;;;5010327;28;20211;-67
2022/06/08 10:25:16;;;;;;;18.27;8.67;;;19.00;99.90;;;;;;5014307;28;20219;-66
2022/06/08 10:27:48;;;;;;;10.70;8.00;;;18.70;99.90;;;;;;5000284;28;20232;-67
2022/06/08 10:30:42;;;;;;;6.70;5.30;;;18.40;99.90;;;;;;5033346;28;20168;-66
2022/06/08 10:33:21;;;;;;;7.47;6.30;;;17.80;99.90;;;;;;5029150;28;20237;-65
2022/06/08 10:35:50;;;;;;;7.00;6.03;;;17.50;99.90;;;;;;5012925;28;20265;-65
2022/06/08 10:38:20;;;;;;;10.60;5.90;;;17.30;99.90;;;;;;5013580;28;20688;-66
2022/06/08 10:44:05;;;;;;;12.40;7.47;;;17.40;99.90;;;;;;4992380;28;20188;-66
2022/06/08 10:46:47;;;;;;;7.77;7.10;;;17.70;99.90;;;;;;4993847;28;20219;-65
2022/06/08 10:49:20;;;;;;;8.07;6.63;;;17.80;99.90;;;;;;4993639;28;20176;-66
2022/06/08 10:52:18;;;;;;;11.60;6.57;;;17.80;99.90;;;;;;4994860;28;20176;-66
2022/06/08 10:54:54;;;;;;;7.97;5.73;;;17.80;99.90;;;;;;5012746;28;20187;-67
2022/06/08 10:57:49;;;;;;;7.63;6.03;;;17.70;99.90;;;;;;5007001;28;20184;-66
2022/06/08 11:00:20;;;;;;;11.73;6.50;;;17.60;99.90;;;;;;4992899;28;20188;-65
2022/06/08 11:02:59;;;;;;;8.37;6.93;;;17.70;99.90;;;;;;5001733;28;20198;-66
2022/06/08 11:05:35;;;;;;;11.97;6.57;;;17.80;99.90;;;;;;5012868;28;20203;-65
2022/06/08 11:08:00;;;;;;;8.33;6.10;;;17.60;99.90;;;;;;5002653;28;20204;-66
2022/06/08 11:10:44;;;;;;;7.77;5.73;;;17.50;99.90;;;;;;4993491;28;20226;-65
2022/06/08 11:13:38;;;;;;;8.93;6.63;;;17.50;99.90;;;;;;5002866;28;20215;-65
2022/06/08 11:16:27;;;;;;;5.77;5.20;;;17.50;99.90;;;;;;5012814;28;20592;-66
2022/06/08 11:19:04;;;;;;;11.80;6.50;;;17.10;99.90;;;;;;4995780;28;20195;-65
2022/06/08 11:21:37;;;;;;;9.90;6.40;;;17.00;99.90;;;;;;4993309;28;20180;-66
2022/06/08 11:24:14;;;;;;;6.20;5.70;;;17.00;99.90;;;;;;5009188;28;20180;-66
2022/06/08 11:27:09;;;;;;;7.77;6.70;;;17.10;99.90;;;;;;5012910;28;20254;-65
2022/06/08 11:29:51;;;;;;;7.93;5.90;;;17.20;99.90;;;;;;5005546;28;20204;-66
2022/06/08 11:32:32;;;;;;;6.33;5.83;;;17.40;99.90;;;;;;5003426;28;20177;-65
2022/06/08 11:35:42;;;;;;;8.70;6.93;;;17.50;99.90;;;;;;4992590;28;20654;-66
2022/06/08 11:38:29;;;;;;;8.57;6.87;;;17.60;99.90;;;;;;5007974;28;20184;-66
2022/06/08 11:41:19;;;;;;;7.83;6.50;;;17.70;99.90;;;;;;5012492;28;20184;-66
2022/06/08 11:43:47;;;;;;;6.47;5.87;;;17.60;99.90;;;;;;4992709;28;20209;-65
2022/06/08 11:46:25;;;;;;;6.87;6.27;;;17.50;99.90;;;;;;4992641;28;20202;-65
2022/06/08 11:48:52;;;;;;;7.33;6.23;;;17.50;99.90;;;;;;4992793;28;20188;-67
2022/06/08 11:51:34;;;;;;;8.20;6.83;;;17.60;99.90;;;;;;4992544;28;20165;-67
2022/06/08 11:54:14;;;;;;;7.97;7.17;;;17.60;99.90;;;;;;4992336;28;20301;-67
2022/06/08 11:56:56;;;;;;;7.23;6.10;;;17.60;99.90;;;;;;5003753;28;20200;-67
2022/06/08 11:59:24;;;;;;;8.50;6.70;;;17.70;99.90;;;;;;5012080;28;20199;-67
2022/06/08 12:01:58;;;;;;;13.30;7.00;;;17.80;99.90;;;;;;5000150;28;20471;-67
2022/06/08 12:04:27;;;;;;;9.83;6.50;;;17.90;99.90;;;;;;4992078;28;20183;-67
2022/06/08 12:06:56;;;;;;;6.30;5.70;;;18.00;99.90;;;;;;5004172;28;20563;-67
2022/06/08 12:09:27;;;;;;;8.37;6.37;;;18.10;99.90;;;;;;5011867;28;20186;-67
2022/06/08 12:11:55;;;;;;;8.07;7.23;;;18.20;99.90;;;;;;5000452;28;20235;-66
2022/06/08 12:14:30;;;;;;;10.00;6.37;;;18.20;99.90;;;;;;4991901;28;20595;-67
2022/06/08 12:17:00;;;;;;;7.33;6.50;;;18.30;99.90;;;;;;5009825;28;20187;-67
2022/06/08 12:19:30;;;;;;;6.10;5.50;;;18.50;99.90;;;;;;5009794;28;20327;-67
2022/06/08 12:22:19;;;;;;;7.77;6.17;;;18.60;99.90;;;;;;4994734;28;20275;-67
2022/06/08 12:25:17;;;;;;;9.80;6.30;;;18.50;99.90;;;;;;5004099;28;20212;-66
2022/06/08 12:27:51;;;;;;;7.50;6.00;;;18.30;99.90;;;;;;5011761;28;20211;-67
2022/06/08 12:30:24;;;;;;;7.27;6.17;;;18.10;99.90;;;;;;4994991;28;20192;-67
2022/06/08 12:32:53;;;;;;;6.57;5.97;;;18.00;99.90;;;;;;4992213;28;20169;-66
2022/06/08 12:35:25;;;;;;;6.67;5.50;;;17.90;99.90;;;;;;5007179;28;20200;-67
2022/06/08 12:38:13;;;;;;;6.80;6.10;;;18.00;99.90;;;;;;5011841;28;20172;-67
2022/06/08 12:40:39;;;;;;;6.73;6.13;;;18.10;99.90;;;;;;4993234;28;20185;-67
2022/06/08 12:43:09;;;;;;;8.03;6.20;;;18.10;99.90;;;;;;4991589;28;20180;-67
2022/06/08 12:45:38;;;;;;;6.23;5.50;;;18.20;99.90;;;;;;5008617;28;20380;-66
2022/06/08 12:48:32;;;;;;;6.67;6.17;;;18.20;99.90;;;;;;5011411;28;20208;-67
2022/06/08 12:51:02;;;;;;;8.33;5.70;;;18.20;99.90;;;;;;5010246;28;20247;-66
2022/06/08 12:53:29;;;;;;;6.40;5.87;;;18.10;99.90;;;;;;5006301;28;20187;-68
2022/06/08 12:55:55;;;;;;;9.10;6.03;;;18.00;99.90;;;;;;5011425;28;20199;-68
2022/06/08 12:58:23;;;;;;;6.60;6.10;;;17.90;99.90;;;;;;5010738;28;20591;-66
2022/06/08 13:00:52;;;;;;;7.43;6.10;;;17.90;99.90;;;;;;5011609;28;20181;-67
2022/06/08 13:03:26;;;;;;;7.40;6.70;;;18.00;99.90;;;;;;5011265;28;20176;-67
2022/06/08 13:05:54;;;;;;;6.60;6.00;;;17.90;99.90;;;;;;5011305;28;20698;-67
2022/06/08 13:08:22;;;;;;;5.83;5.33;;;17.90;99.90;;;;;;5011187;28;20917;-67
2022/06/08 13:10:51;;;;;;;6.10;5.50;;;17.90;99.90;;;;;;5011540;28;20203;-67
2022/06/08 13:13:23;;;;;;;6.47;5.87;;;17.80;99.90;;;;;;5011057;28;20195;-67
2022/06/08 13:15:49;;;;;;;6.17;5.60;;;17.60;99.90;;;;;;5011291;28;20199;-67
2022/06/08 13:18:23;;;;;;;6.47;5.93;;;17.50;99.90;;;;;;5011198;28;20225;-67
2022/06/08 13:20:50;;;;;;;6.30;5.80;;;17.40;99.90;;;;;;5011366;28;20172;-67
2022/06/08 13:23:16;;;;;;;7.97;6.13;;;17.30;99.90;;;;;;5011021;28;20184;-68
2022/06/08 13:25:44;;;;;;;5.80;5.40;;;17.10;99.90;;;;;;5010851;28;20251;-68
2022/06/08 13:28:14;;;;;;;7.33;6.50;;;16.90;99.90;;;;;;5011111;28;20200;-67
2022/06/08 13:30:42;;;;;;;6.43;5.93;;;16.70;99.90;;;;;;5011330;28;20168;-67